sensor_id;sensor_type;location;lat;lon;timestamp;P1;durP1;ratioP1;P2;durP2;ratioP2
14516;SDS011;7344;50.864;4.362;2022-07-23T00:01:30;23.37;;;19.03;;
14516;SDS011;7344;50.864;4.362;2022-07-23T00:03:56;24.07;;;18.90;;
14516;SDS011;7344;50.864;4.362;2022-07-23T00:06:22;24.00;;;18.60;;
14516;SDS011;7344;50.864;4.362;2022-07-23T00:08:49;22.17;;;19.77;;
14516;SDS011;7344;50.864;4.362;2022-07-23T00:11:15;21.07;;;18.80;;
14516;SDS011;7344;50.864;4.362;2022-07-23T00:13:42;27.37;;;20.13;;
14516;SDS011;7344;50.864;4.362;2022-07-23T00:16:08;26.53;;;21.37;;
14516;SDS011;7344;50.864;4.362;2022-07-23T00:18:34;25.60;;;20.50;;
14516;SDS011;7344;50.864;4.362;2022-07-23T00:20:59;24.43;;;20.57;;
14516;SDS011;7344;50.864;4.362;2022-07-23T00:23:25;27.13;;;20.60;;
14516;SDS011;7344;50.864;4.362;2022-07-23T00:25:52;25.87;;;20.23;;
14516;SDS011;7344;50.864;4.362;2022-07-23T00:28:18;23.20;;;20.70;;
14516;SDS011;7344;50.864;4.362;2022-07-23T00:30:43;26.27;;;20.70;;
14516;SDS011;7344;50.864;4.362;2022-07-23T00:33:09;28.03;;;21.37;;
14516;SDS011;7344;50.864;4.362;2022-07-23T00:35:36;23.43;;;20.93;;
14516;SDS011;7344;50.864;4.362;2022-07-23T00:38:05;23.70;;;19.93;;
14516;SDS011;7344;50.864;4.362;2022-07-23T00:40:33;24.40;;;20.93;;
14516;SDS011;7344;50.864;4.362;2022-07-23T00:42:59;26.67;;;21.63;;
14516;SDS011;7344;50.864;4.362;2022-07-23T00:45:25;24.97;;;19.83;;
14516;SDS011;7344;50.864;4.362;2022-07-23T00:47:51;21.97;;;19.63;;
14516;SDS011;7344;50.864;4.362;2022-07-23T00:50:17;22.40;;;20.00;;
14516;SDS011;7344;50.864;4.362;2022-07-23T00:52:43;24.80;;;21.27;;
14516;SDS011;7344;50.864;4.362;2022-07-23T00:55:09;24.70;;;20.63;;
14516;SDS011;7344;50.864;4.362;2022-07-23T00:57:36;30.83;;;20.90;;
14516;SDS011;7344;50.864;4.362;2022-07-23T01:00:03;22.80;;;20.37;;
14516;SDS011;7344;50.864;4.362;2022-07-23T01:02:30;26.70;;;21.07;;
14516;SDS011;7344;50.864;4.362;2022-07-23T01:04:56;25.27;;;21.00;;
14516;SDS011;7344;50.864;4.362;2022-07-23T01:07:22;25.03;;;20.87;;
14516;SDS011;7344;50.864;4.362;2022-07-23T01:09:49;24.97;;;21.13;;
14516;SDS011;7344;50.864;4.362;2022-07-23T01:12:16;26.97;;;21.57;;
14516;SDS011;7344;50.864;4.362;2022-07-23T01:14:41;26.87;;;22.57;;
14516;SDS011;7344;50.864;4.362;2022-07-23T01:17:07;24.00;;;21.27;;
14516;SDS011;7344;50.864;4.362;2022-07-23T01:19:32;27.37;;;22.00;;
14516;SDS011;7344;50.864;4.362;2022-07-23T01:21:58;24.43;;;21.50;;
14516;SDS011;7344;50.864;4.362;2022-07-23T01:24:29;26.57;;;20.50;;
14516;SDS011;7344;50.864;4.362;2022-07-23T01:26:55;26.03;;;20.83;;
14516;SDS011;7344;50.864;4.362;2022-07-23T01:29:20;30.23;;;22.03;;
14516;SDS011;7344;50.864;4.362;2022-07-23T01:31:46;23.50;;;21.00;;
14516;SDS011;7344;50.864;4.362;2022-07-23T01:34:12;25.37;;;21.03;;
14516;SDS011;7344;50.864;4.362;2022-07-23T01:36:38;28.70;;;21.40;;
14516;SDS011;7344;50.864;4.362;2022-07-23T01:39:05;28.93;;;22.53;;
14516;SDS011;7344;50.864;4.362;2022-07-23T01:41:31;25.07;;;21.47;;
14516;SDS011;7344;50.864;4.362;2022-07-23T01:43:57;25.67;;;21.20;;
14516;SDS011;7344;50.864;4.362;2022-07-23T01:46:23;26.03;;;22.57;;
14516;SDS011;7344;50.864;4.362;2022-07-23T01:48:48;28.50;;;22.30;;
14516;SDS011;7344;50.864;4.362;2022-07-23T01:51:14;24.70;;;22.03;;
14516;SDS011;7344;50.864;4.362;2022-07-23T01:53:39;26.57;;;22.53;;
14516;SDS011;7344;50.864;4.362;2022-07-23T01:56:05;27.73;;;23.03;;
14516;SDS011;7344;50.864;4.362;2022-07-23T01:58:31;27.03;;;22.27;;
14516;SDS011;7344;50.864;4.362;2022-07-23T02:00:57;28.40;;;23.17;;
14516;SDS011;7344;50.864;4.362;2022-07-23T02:03:24;26.73;;;23.03;;
14516;SDS011;7344;50.864;4.362;2022-07-23T02:05:50;27.60;;;22.70;;
14516;SDS011;7344;50.864;4.362;2022-07-23T02:08:16;25.47;;;21.70;;
14516;SDS011;7344;50.864;4.362;2022-07-23T02:10:41;28.23;;;23.37;;
14516;SDS011;7344;50.864;4.362;2022-07-23T02:13:07;31.30;;;23.20;;
14516;SDS011;7344;50.864;4.362;2022-07-23T02:15:33;25.13;;;22.13;;
14516;SDS011;7344;50.864;4.362;2022-07-23T02:17:59;29.63;;;23.67;;
14516;SDS011;7344;50.864;4.362;2022-07-23T02:20:24;27.47;;;22.67;;
14516;SDS011;7344;50.864;4.362;2022-07-23T02:22:50;27.83;;;22.83;;
14516;SDS011;7344;50.864;4.362;2022-07-23T02:25:16;29.60;;;22.40;;
14516;SDS011;7344;50.864;4.362;2022-07-23T02:27:43;27.53;;;22.63;;
14516;SDS011;7344;50.864;4.362;2022-07-23T02:30:09;26.27;;;23.43;;
14516;SDS011;7344;50.864;4.362;2022-07-23T02:32:35;29.57;;;23.20;;
14516;SDS011;7344;50.864;4.362;2022-07-23T02:35:02;27.23;;;22.67;;
14516;SDS011;7344;50.864;4.362;2022-07-23T02:37:28;33.33;;;23.30;;
14516;SDS011;7344;50.864;4.362;2022-07-23T02:39:54;25.87;;;22.97;;
14516;SDS011;7344;50.864;4.362;2022-07-23T02:42:20;26.33;;;22.70;;
14516;SDS011;7344;50.864;4.362;2022-07-23T02:44:46;32.40;;;24.00;;
14516;SDS011;7344;50.864;4.362;2022-07-23T02:47:11;27.23;;;23.40;;
14516;SDS011;7344;50.864;4.362;2022-07-23T02:49:37;29.20;;;23.67;;
14516;SDS011;7344;50.864;4.362;2022-07-23T02:52:03;32.70;;;24.60;;
14516;SDS011;7344;50.864;4.362;2022-07-23T02:54:29;31.83;;;24.30;;
14516;SDS011;7344;50.864;4.362;2022-07-23T02:56:54;35.00;;;24.93;;
14516;SDS011;7344;50.864;4.362;2022-07-23T02:59:20;33.67;;;25.30;;
14516;SDS011;7344;50.864;4.362;2022-07-23T03:01:46;29.83;;;24.80;;
14516;SDS011;7344;50.864;4.362;2022-07-23T03:04:12;28.20;;;23.43;;
14516;SDS011;7344;50.864;4.362;2022-07-23T03:06:37;30.13;;;24.63;;
14516;SDS011;7344;50.864;4.362;2022-07-23T03:09:04;26.60;;;22.47;;
14516;SDS011;7344;50.864;4.362;2022-07-23T03:11:30;28.23;;;22.73;;
14516;SDS011;7344;50.864;4.362;2022-07-23T03:13:56;30.93;;;23.30;;
14516;SDS011;7344;50.864;4.362;2022-07-23T03:16:22;26.83;;;22.70;;
14516;SDS011;7344;50.864;4.362;2022-07-23T03:18:47;25.13;;;22.43;;
14516;SDS011;7344;50.864;4.362;2022-07-23T03:21:13;27.73;;;23.73;;
14516;SDS011;7344;50.864;4.362;2022-07-23T03:23:38;28.93;;;23.63;;
14516;SDS011;7344;50.864;4.362;2022-07-23T03:26:04;28.03;;;23.90;;
14516;SDS011;7344;50.864;4.362;2022-07-23T03:28:30;28.30;;;23.27;;
14516;SDS011;7344;50.864;4.362;2022-07-23T03:30:56;27.43;;;23.43;;
14516;SDS011;7344;50.864;4.362;2022-07-23T03:33:21;27.63;;;22.23;;
14516;SDS011;7344;50.864;4.362;2022-07-23T03:35:47;25.27;;;22.57;;
14516;SDS011;7344;50.864;4.362;2022-07-23T03:38:13;25.23;;;22.53;;
14516;SDS011;7344;50.864;4.362;2022-07-23T03:40:39;25.33;;;21.37;;
14516;SDS011;7344;50.864;4.362;2022-07-23T03:43:05;25.87;;;22.10;;
14516;SDS011;7344;50.864;4.362;2022-07-23T03:45:31;25.10;;;22.20;;
14516;SDS011;7344;50.864;4.362;2022-07-23T03:47:57;29.33;;;21.90;;
14516;SDS011;7344;50.864;4.362;2022-07-23T03:50:23;26.37;;;22.17;;
14516;SDS011;7344;50.864;4.362;2022-07-23T03:52:48;28.93;;;22.23;;
14516;SDS011;7344;50.864;4.362;2022-07-23T03:55:14;24.73;;;21.80;;
14516;SDS011;7344;50.864;4.362;2022-07-23T03:57:40;27.37;;;22.43;;
14516;SDS011;7344;50.864;4.362;2022-07-23T04:00:07;28.53;;;22.83;;
14516;SDS011;7344;50.864;4.362;2022-07-23T04:02:34;24.37;;;21.23;;
14516;SDS011;7344;50.864;4.362;2022-07-23T04:05:00;23.93;;;21.37;;
14516;SDS011;7344;50.864;4.362;2022-07-23T04:07:26;28.43;;;21.87;;
14516;SDS011;7344;50.864;4.362;2022-07-23T04:09:52;26.60;;;21.27;;
14516;SDS011;7344;50.864;4.362;2022-07-23T04:12:18;24.20;;;21.53;;
14516;SDS011;7344;50.864;4.362;2022-07-23T04:14:44;25.67;;;21.57;;
14516;SDS011;7344;50.864;4.362;2022-07-23T04:17:10;27.57;;;22.70;;
14516;SDS011;7344;50.864;4.362;2022-07-23T04:19:36;23.97;;;21.00;;
14516;SDS011;7344;50.864;4.362;2022-07-23T04:22:05;26.60;;;21.33;;
14516;SDS011;7344;50.864;4.362;2022-07-23T04:24:31;23.33;;;20.43;;
14516;SDS011;7344;50.864;4.362;2022-07-23T04:26:57;24.13;;;20.13;;
14516;SDS011;7344;50.864;4.362;2022-07-23T04:29:23;20.90;;;18.80;;
14516;SDS011;7344;50.864;4.362;2022-07-23T04:31:48;21.20;;;18.80;;
14516;SDS011;7344;50.864;4.362;2022-07-23T04:34:14;19.77;;;17.77;;
14516;SDS011;7344;50.864;4.362;2022-07-23T04:36:39;19.63;;;17.20;;
14516;SDS011;7344;50.864;4.362;2022-07-23T04:39:05;19.60;;;16.47;;
14516;SDS011;7344;50.864;4.362;2022-07-23T04:41:31;18.80;;;16.17;;
14516;SDS011;7344;50.864;4.362;2022-07-23T04:43:57;18.38;;;16.45;;
14516;SDS011;7344;50.864;4.362;2022-07-23T04:46:22;17.25;;;15.38;;
14516;SDS011;7344;50.864;4.362;2022-07-23T04:48:48;16.45;;;14.85;;
14516;SDS011;7344;50.864;4.362;2022-07-23T04:51:14;16.35;;;14.63;;
14516;SDS011;7344;50.864;4.362;2022-07-23T04:53:39;18.17;;;15.27;;
14516;SDS011;7344;50.864;4.362;2022-07-23T04:56:05;16.38;;;14.88;;
14516;SDS011;7344;50.864;4.362;2022-07-23T04:58:31;16.40;;;14.70;;
14516;SDS011;7344;50.864;4.362;2022-07-23T05:00:57;16.85;;;15.15;;
14516;SDS011;7344;50.864;4.362;2022-07-23T05:03:23;15.20;;;13.90;;
14516;SDS011;7344;50.864;4.362;2022-07-23T05:05:48;17.42;;;14.23;;
14516;SDS011;7344;50.864;4.362;2022-07-23T05:08:14;16.95;;;14.35;;
14516;SDS011;7344;50.864;4.362;2022-07-23T05:10:40;15.52;;;13.93;;
14516;SDS011;7344;50.864;4.362;2022-07-23T05:13:06;14.73;;;13.18;;
14516;SDS011;7344;50.864;4.362;2022-07-23T05:15:31;14.02;;;12.60;;
14516;SDS011;7344;50.864;4.362;2022-07-23T05:17:57;15.82;;;13.30;;
14516;SDS011;7344;50.864;4.362;2022-07-23T05:20:22;13.82;;;12.52;;
14516;SDS011;7344;50.864;4.362;2022-07-23T05:22:48;14.30;;;12.85;;
14516;SDS011;7344;50.864;4.362;2022-07-23T05:25:14;14.30;;;12.93;;
14516;SDS011;7344;50.864;4.362;2022-07-23T05:27:42;15.32;;;13.82;;
14516;SDS011;7344;50.864;4.362;2022-07-23T05:30:07;13.73;;;12.43;;
14516;SDS011;7344;50.864;4.362;2022-07-23T05:32:34;14.57;;;13.20;;
14516;SDS011;7344;50.864;4.362;2022-07-23T05:35:01;14.20;;;12.43;;
14516;SDS011;7344;50.864;4.362;2022-07-23T05:37:28;14.77;;;12.73;;
14516;SDS011;7344;50.864;4.362;2022-07-23T05:39:53;15.52;;;13.23;;
14516;SDS011;7344;50.864;4.362;2022-07-23T05:42:19;14.02;;;12.63;;
14516;SDS011;7344;50.864;4.362;2022-07-23T05:44:44;15.30;;;12.90;;
14516;SDS011;7344;50.864;4.362;2022-07-23T05:47:10;16.13;;;13.00;;
14516;SDS011;7344;50.864;4.362;2022-07-23T05:49:36;15.20;;;13.57;;
14516;SDS011;7344;50.864;4.362;2022-07-23T05:52:06;14.30;;;12.48;;
14516;SDS011;7344;50.864;4.362;2022-07-23T05:54:35;14.27;;;12.85;;
14516;SDS011;7344;50.864;4.362;2022-07-23T05:57:01;15.07;;;13.45;;
14516;SDS011;7344;50.864;4.362;2022-07-23T05:59:27;14.27;;;12.75;;
14516;SDS011;7344;50.864;4.362;2022-07-23T06:01:54;16.63;;;13.15;;
14516;SDS011;7344;50.864;4.362;2022-07-23T06:04:19;15.90;;;13.30;;
14516;SDS011;7344;50.864;4.362;2022-07-23T06:06:45;15.23;;;12.73;;
14516;SDS011;7344;50.864;4.362;2022-07-23T06:09:10;13.93;;;12.65;;
14516;SDS011;7344;50.864;4.362;2022-07-23T06:11:38;13.55;;;12.18;;
14516;SDS011;7344;50.864;4.362;2022-07-23T06:14:04;13.35;;;11.98;;
14516;SDS011;7344;50.864;4.362;2022-07-23T06:16:30;13.10;;;11.80;;
14516;SDS011;7344;50.864;4.362;2022-07-23T06:18:55;12.75;;;11.50;;
14516;SDS011;7344;50.864;4.362;2022-07-23T06:21:21;12.43;;;11.38;;
14516;SDS011;7344;50.864;4.362;2022-07-23T06:23:47;13.30;;;11.80;;
14516;SDS011;7344;50.864;4.362;2022-07-23T06:26:12;14.10;;;11.27;;
14516;SDS011;7344;50.864;4.362;2022-07-23T06:28:38;12.05;;;10.93;;
14516;SDS011;7344;50.864;4.362;2022-07-23T06:31:04;11.30;;;10.20;;
14516;SDS011;7344;50.864;4.362;2022-07-23T06:33:29;11.05;;;10.05;;
14516;SDS011;7344;50.864;4.362;2022-07-23T06:35:55;11.10;;;10.00;;
14516;SDS011;7344;50.864;4.362;2022-07-23T06:38:20;11.43;;;10.05;;
14516;SDS011;7344;50.864;4.362;2022-07-23T06:40:46;11.75;;;10.02;;
14516;SDS011;7344;50.864;4.362;2022-07-23T06:43:12;11.02;;;9.95;;
14516;SDS011;7344;50.864;4.362;2022-07-23T06:45:37;10.20;;;9.32;;
14516;SDS011;7344;50.864;4.362;2022-07-23T06:48:03;10.30;;;9.40;;
14516;SDS011;7344;50.864;4.362;2022-07-23T06:50:29;11.07;;;10.07;;
14516;SDS011;7344;50.864;4.362;2022-07-23T06:52:54;10.15;;;9.20;;
14516;SDS011;7344;50.864;4.362;2022-07-23T06:55:20;11.07;;;10.18;;
14516;SDS011;7344;50.864;4.362;2022-07-23T06:57:46;10.80;;;9.68;;
14516;SDS011;7344;50.864;4.362;2022-07-23T07:00:12;11.45;;;10.07;;
14516;SDS011;7344;50.864;4.362;2022-07-23T07:02:37;10.60;;;9.68;;
14516;SDS011;7344;50.864;4.362;2022-07-23T07:05:03;12.10;;;9.20;;
14516;SDS011;7344;50.864;4.362;2022-07-23T07:07:29;10.98;;;9.88;;
14516;SDS011;7344;50.864;4.362;2022-07-23T07:09:55;11.02;;;10.13;;
14516;SDS011;7344;50.864;4.362;2022-07-23T07:12:20;10.60;;;9.57;;
14516;SDS011;7344;50.864;4.362;2022-07-23T07:14:46;10.25;;;9.23;;
14516;SDS011;7344;50.864;4.362;2022-07-23T07:17:11;11.05;;;9.90;;
14516;SDS011;7344;50.864;4.362;2022-07-23T07:19:37;9.90;;;9.20;;
14516;SDS011;7344;50.864;4.362;2022-07-23T07:22:03;9.73;;;8.90;;
14516;SDS011;7344;50.864;4.362;2022-07-23T07:24:28;10.50;;;9.50;;
14516;SDS011;7344;50.864;4.362;2022-07-23T07:26:54;10.68;;;9.68;;
14516;SDS011;7344;50.864;4.362;2022-07-23T07:29:19;10.63;;;9.68;;
14516;SDS011;7344;50.864;4.362;2022-07-23T07:31:45;11.15;;;10.07;;
14516;SDS011;7344;50.864;4.362;2022-07-23T07:34:11;9.90;;;9.00;;
14516;SDS011;7344;50.864;4.362;2022-07-23T07:36:36;9.35;;;8.55;;
14516;SDS011;7344;50.864;4.362;2022-07-23T07:39:05;10.55;;;8.88;;
14516;SDS011;7344;50.864;4.362;2022-07-23T07:41:31;9.23;;;8.45;;
14516;SDS011;7344;50.864;4.362;2022-07-23T07:43:57;9.88;;;8.95;;
14516;SDS011;7344;50.864;4.362;2022-07-23T07:46:23;10.55;;;9.65;;
14516;SDS011;7344;50.864;4.362;2022-07-23T07:48:49;10.27;;;9.32;;
14516;SDS011;7344;50.864;4.362;2022-07-23T07:51:15;10.35;;;9.40;;
14516;SDS011;7344;50.864;4.362;2022-07-23T07:53:41;10.27;;;9.38;;
14516;SDS011;7344;50.864;4.362;2022-07-23T07:56:07;11.20;;;10.10;;
14516;SDS011;7344;50.864;4.362;2022-07-23T07:58:32;10.88;;;9.85;;
14516;SDS011;7344;50.864;4.362;2022-07-23T08:00:58;10.50;;;9.60;;
14516;SDS011;7344;50.864;4.362;2022-07-23T08:03:23;11.05;;;10.15;;
14516;SDS011;7344;50.864;4.362;2022-07-23T08:05:49;9.80;;;8.90;;
14516;SDS011;7344;50.864;4.362;2022-07-23T08:08:15;10.35;;;9.27;;
14516;SDS011;7344;50.864;4.362;2022-07-23T08:10:41;9.65;;;8.77;;
14516;SDS011;7344;50.864;4.362;2022-07-23T08:13:07;9.68;;;8.07;;
14516;SDS011;7344;50.864;4.362;2022-07-23T08:15:32;8.30;;;7.40;;
14516;SDS011;7344;50.864;4.362;2022-07-23T08:17:58;11.70;;;8.93;;
14516;SDS011;7344;50.864;4.362;2022-07-23T08:20:25;8.45;;;7.75;;
14516;SDS011;7344;50.864;4.362;2022-07-23T08:22:55;9.73;;;7.15;;
14516;SDS011;7344;50.864;4.362;2022-07-23T08:25:27;9.00;;;7.80;;
14516;SDS011;7344;50.864;4.362;2022-07-23T08:27:57;8.70;;;7.80;;
14516;SDS011;7344;50.864;4.362;2022-07-23T08:30:24;9.75;;;8.57;;
14516;SDS011;7344;50.864;4.362;2022-07-23T08:35:47;8.05;;;7.45;;
14516;SDS011;7344;50.864;4.362;2022-07-23T08:38:15;7.70;;;7.00;;
14516;SDS011;7344;50.864;4.362;2022-07-23T08:40:46;11.07;;;6.72;;
14516;SDS011;7344;50.864;4.362;2022-07-23T08:43:17;7.65;;;6.88;;
14516;SDS011;7344;50.864;4.362;2022-07-23T08:45:45;7.55;;;6.90;;
14516;SDS011;7344;50.864;4.362;2022-07-23T08:48:17;8.10;;;7.40;;
14516;SDS011;7344;50.864;4.362;2022-07-23T08:50:46;9.82;;;7.82;;
14516;SDS011;7344;50.864;4.362;2022-07-23T08:53:16;7.68;;;7.07;;
14516;SDS011;7344;50.864;4.362;2022-07-23T08:55:44;8.75;;;8.00;;
14516;SDS011;7344;50.864;4.362;2022-07-23T08:58:11;8.35;;;7.65;;
14516;SDS011;7344;50.864;4.362;2022-07-23T09:00:37;9.05;;;8.18;;
14516;SDS011;7344;50.864;4.362;2022-07-23T09:03:02;9.02;;;8.20;;
14516;SDS011;7344;50.864;4.362;2022-07-23T09:05:28;8.45;;;7.75;;
14516;SDS011;7344;50.864;4.362;2022-07-23T09:10:43;7.55;;;6.95;;
14516;SDS011;7344;50.864;4.362;2022-07-23T09:15:59;7.85;;;7.30;;
14516;SDS011;7344;50.864;4.362;2022-07-23T09:18:34;8.18;;;7.35;;
14516;SDS011;7344;50.864;4.362;2022-07-23T09:21:21;8.35;;;7.65;;
14516;SDS011;7344;50.864;4.362;2022-07-23T09:26:48;7.93;;;7.32;;
14516;SDS011;7344;50.864;4.362;2022-07-23T09:29:26;8.70;;;7.85;;
14516;SDS011;7344;50.864;4.362;2022-07-23T09:31:55;8.38;;;6.88;;
14516;SDS011;7344;50.864;4.362;2022-07-23T09:34:25;8.70;;;7.80;;
14516;SDS011;7344;50.864;4.362;2022-07-23T09:36:56;8.02;;;7.32;;
14516;SDS011;7344;50.864;4.362;2022-07-23T09:41:52;8.80;;;8.05;;
14516;SDS011;7344;50.864;4.362;2022-07-23T09:44:18;8.00;;;7.20;;
14516;SDS011;7344;50.864;4.362;2022-07-23T09:46:46;6.57;;;6.03;;
14516;SDS011;7344;50.864;4.362;2022-07-23T09:49:16;6.80;;;6.13;;
14516;SDS011;7344;50.864;4.362;2022-07-23T09:54:23;6.70;;;6.10;;
14516;SDS011;7344;50.864;4.362;2022-07-23T09:56:52;11.68;;;8.05;;
14516;SDS011;7344;50.864;4.362;2022-07-23T09:59:18;7.78;;;5.57;;
14516;SDS011;7344;50.864;4.362;2022-07-23T10:01:49;4.95;;;4.63;;
14516;SDS011;7344;50.864;4.362;2022-07-23T10:04:16;6.35;;;5.50;;
14516;SDS011;7344;50.864;4.362;2022-07-23T10:06:43;5.78;;;5.30;;
14516;SDS011;7344;50.864;4.362;2022-07-23T10:09:10;6.22;;;5.68;;
14516;SDS011;7344;50.864;4.362;2022-07-23T10:11:37;6.70;;;6.10;;
14516;SDS011;7344;50.864;4.362;2022-07-23T10:14:03;6.32;;;5.82;;
14516;SDS011;7344;50.864;4.362;2022-07-23T10:16:30;5.00;;;4.60;;
14516;SDS011;7344;50.864;4.362;2022-07-23T10:18:56;5.35;;;4.88;;
14516;SDS011;7344;50.864;4.362;2022-07-23T10:21:36;6.18;;;5.78;;
14516;SDS011;7344;50.864;4.362;2022-07-23T10:32:42;5.38;;;4.88;;
14516;SDS011;7344;50.864;4.362;2022-07-23T10:38:18;4.43;;;4.22;;
14516;SDS011;7344;50.864;4.362;2022-07-23T10:41:03;5.53;;;5.03;;
14516;SDS011;7344;50.864;4.362;2022-07-23T10:43:29;5.43;;;5.03;;
14516;SDS011;7344;50.864;4.362;2022-07-23T10:45:56;5.28;;;4.88;;
14516;SDS011;7344;50.864;4.362;2022-07-23T10:49:25;5.97;;;5.40;;
14516;SDS011;7344;50.864;4.362;2022-07-23T10:54:45;5.85;;;5.45;;
14516;SDS011;7344;50.864;4.362;2022-07-23T10:57:14;7.05;;;6.43;;
14516;SDS011;7344;50.864;4.362;2022-07-23T11:02:25;6.13;;;5.63;;
14516;SDS011;7344;50.864;4.362;2022-07-23T11:04:52;5.63;;;5.22;;
14516;SDS011;7344;50.864;4.362;2022-07-23T11:07:19;6.70;;;5.47;;
14516;SDS011;7344;50.864;4.362;2022-07-23T11:09:45;6.05;;;5.65;;
14516;SDS011;7344;50.864;4.362;2022-07-23T11:17:36;6.28;;;5.63;;
14516;SDS011;7344;50.864;4.362;2022-07-23T11:25:51;7.68;;;5.85;;
14516;SDS011;7344;50.864;4.362;2022-07-23T11:28:15;5.72;;;5.22;;
14516;SDS011;7344;50.864;4.362;2022-07-23T11:30:43;8.05;;;5.82;;
14516;SDS011;7344;50.864;4.362;2022-07-23T11:35:36;6.50;;;5.90;;
14516;SDS011;7344;50.864;4.362;2022-07-23T11:38:24;6.30;;;5.70;;
14516;SDS011;7344;50.864;4.362;2022-07-23T11:40:53;6.45;;;5.85;;
14516;SDS011;7344;50.864;4.362;2022-07-23T11:43:20;5.88;;;5.38;;
14516;SDS011;7344;50.864;4.362;2022-07-23T11:45:47;7.43;;;6.70;;
14516;SDS011;7344;50.864;4.362;2022-07-23T11:48:19;6.70;;;6.15;;
14516;SDS011;7344;50.864;4.362;2022-07-23T11:50:46;6.18;;;5.65;;
14516;SDS011;7344;50.864;4.362;2022-07-23T11:53:13;6.68;;;5.97;;
14516;SDS011;7344;50.864;4.362;2022-07-23T11:55:39;6.03;;;5.53;;
14516;SDS011;7344;50.864;4.362;2022-07-23T11:58:04;6.15;;;5.68;;
14516;SDS011;7344;50.864;4.362;2022-07-23T12:00:31;7.22;;;6.18;;
14516;SDS011;7344;50.864;4.362;2022-07-23T12:03:01;7.63;;;6.88;;
14516;SDS011;7344;50.864;4.362;2022-07-23T12:05:29;6.57;;;5.97;;
14516;SDS011;7344;50.864;4.362;2022-07-23T12:07:57;6.32;;;5.70;;
14516;SDS011;7344;50.864;4.362;2022-07-23T12:15:23;7.95;;;6.72;;
14516;SDS011;7344;50.864;4.362;2022-07-23T12:17:51;7.60;;;6.95;;
14516;SDS011;7344;50.864;4.362;2022-07-23T12:20:23;7.47;;;6.45;;
14516;SDS011;7344;50.864;4.362;2022-07-23T12:22:51;7.63;;;6.93;;
14516;SDS011;7344;50.864;4.362;2022-07-23T12:25:21;5.78;;;5.38;;
14516;SDS011;7344;50.864;4.362;2022-07-23T12:28:08;6.22;;;5.72;;
14516;SDS011;7344;50.864;4.362;2022-07-23T12:30:43;6.35;;;5.68;;
14516;SDS011;7344;50.864;4.362;2022-07-23T12:33:14;6.70;;;5.55;;
14516;SDS011;7344;50.864;4.362;2022-07-23T12:35:46;7.18;;;6.60;;
14516;SDS011;7344;50.864;4.362;2022-07-23T12:38:18;7.30;;;5.82;;
14516;SDS011;7344;50.864;4.362;2022-07-23T12:43:22;8.55;;;6.07;;
14516;SDS011;7344;50.864;4.362;2022-07-23T12:53:56;6.82;;;5.60;;
14516;SDS011;7344;50.864;4.362;2022-07-23T12:56:28;6.68;;;5.97;;
14516;SDS011;7344;50.864;4.362;2022-07-23T12:58:56;8.77;;;7.03;;
14516;SDS011;7344;50.864;4.362;2022-07-23T13:01:31;7.20;;;6.50;;
14516;SDS011;7344;50.864;4.362;2022-07-23T13:06:30;11.95;;;9.55;;
14516;SDS011;7344;50.864;4.362;2022-07-23T13:09:04;7.75;;;6.93;;
14516;SDS011;7344;50.864;4.362;2022-07-23T13:11:32;8.77;;;5.35;;
14516;SDS011;7344;50.864;4.362;2022-07-23T13:13:59;5.82;;;4.70;;
14516;SDS011;7344;50.864;4.362;2022-07-23T13:16:29;4.97;;;4.60;;
14516;SDS011;7344;50.864;4.362;2022-07-23T13:18:55;6.13;;;5.50;;
14516;SDS011;7344;50.864;4.362;2022-07-23T13:21:22;7.00;;;4.80;;
14516;SDS011;7344;50.864;4.362;2022-07-23T13:23:48;6.85;;;4.63;;
14516;SDS011;7344;50.864;4.362;2022-07-23T13:26:14;5.28;;;4.88;;
14516;SDS011;7344;50.864;4.362;2022-07-23T13:28:40;4.88;;;4.47;;
14516;SDS011;7344;50.864;4.362;2022-07-23T13:31:06;5.07;;;4.68;;
14516;SDS011;7344;50.864;4.362;2022-07-23T13:33:32;6.60;;;4.72;;
14516;SDS011;7344;50.864;4.362;2022-07-23T13:35:58;5.22;;;4.78;;
14516;SDS011;7344;50.864;4.362;2022-07-23T13:38:24;5.93;;;4.40;;
14516;SDS011;7344;50.864;4.362;2022-07-23T13:40:50;4.60;;;4.25;;
14516;SDS011;7344;50.864;4.362;2022-07-23T13:43:17;4.20;;;3.83;;
14516;SDS011;7344;50.864;4.362;2022-07-23T13:45:44;5.43;;;4.70;;
14516;SDS011;7344;50.864;4.362;2022-07-23T13:48:11;5.13;;;4.07;;
14516;SDS011;7344;50.864;4.362;2022-07-23T13:50:38;5.18;;;4.72;;
14516;SDS011;7344;50.864;4.362;2022-07-23T13:53:05;5.80;;;4.43;;
14516;SDS011;7344;50.864;4.362;2022-07-23T13:55:34;4.07;;;3.75;;
14516;SDS011;7344;50.864;4.362;2022-07-23T13:58:02;5.20;;;4.60;;
14516;SDS011;7344;50.864;4.362;2022-07-23T14:00:29;4.40;;;4.10;;
14516;SDS011;7344;50.864;4.362;2022-07-23T14:02:55;5.07;;;4.53;;
14516;SDS011;7344;50.864;4.362;2022-07-23T14:05:22;4.28;;;3.88;;
14516;SDS011;7344;50.864;4.362;2022-07-23T14:07:47;5.35;;;4.22;;
14516;SDS011;7344;50.864;4.362;2022-07-23T14:10:14;4.60;;;4.13;;
14516;SDS011;7344;50.864;4.362;2022-07-23T14:12:41;5.22;;;4.68;;
14516;SDS011;7344;50.864;4.362;2022-07-23T14:15:07;5.22;;;4.43;;
14516;SDS011;7344;50.864;4.362;2022-07-23T14:17:34;5.00;;;4.65;;
14516;SDS011;7344;50.864;4.362;2022-07-23T14:20:03;4.47;;;4.18;;
14516;SDS011;7344;50.864;4.362;2022-07-23T14:22:30;4.07;;;3.78;;
14516;SDS011;7344;50.864;4.362;2022-07-23T14:24:56;4.60;;;4.22;;
14516;SDS011;7344;50.864;4.362;2022-07-23T14:27:23;4.93;;;4.53;;
14516;SDS011;7344;50.864;4.362;2022-07-23T14:29:50;4.25;;;3.70;;
14516;SDS011;7344;50.864;4.362;2022-07-23T14:32:15;4.32;;;4.13;;
14516;SDS011;7344;50.864;4.362;2022-07-23T14:34:41;4.38;;;3.97;;
14516;SDS011;7344;50.864;4.362;2022-07-23T14:37:07;6.20;;;4.22;;
14516;SDS011;7344;50.864;4.362;2022-07-23T14:39:34;5.25;;;4.60;;
14516;SDS011;7344;50.864;4.362;2022-07-23T14:41:59;5.32;;;4.30;;
14516;SDS011;7344;50.864;4.362;2022-07-23T14:44:25;6.65;;;4.40;;
14516;SDS011;7344;50.864;4.362;2022-07-23T14:46:51;5.30;;;4.20;;
14516;SDS011;7344;50.864;4.362;2022-07-23T14:49:18;5.32;;;4.82;;
14516;SDS011;7344;50.864;4.362;2022-07-23T14:51:43;4.93;;;4.57;;
14516;SDS011;7344;50.864;4.362;2022-07-23T14:54:09;4.72;;;4.40;;
14516;SDS011;7344;50.864;4.362;2022-07-23T14:56:35;4.88;;;4.47;;
14516;SDS011;7344;50.864;4.362;2022-07-23T14:59:01;5.35;;;4.93;;
14516;SDS011;7344;50.864;4.362;2022-07-23T15:01:28;4.72;;;4.32;;
14516;SDS011;7344;50.864;4.362;2022-07-23T15:03:54;6.55;;;4.60;;
14516;SDS011;7344;50.864;4.362;2022-07-23T15:06:19;6.82;;;5.13;;
14516;SDS011;7344;50.864;4.362;2022-07-23T15:08:45;7.97;;;4.88;;
14516;SDS011;7344;50.864;4.362;2022-07-23T15:11:11;4.53;;;4.13;;
14516;SDS011;7344;50.864;4.362;2022-07-23T15:13:37;5.38;;;4.68;;
14516;SDS011;7344;50.864;4.362;2022-07-23T15:16:03;5.07;;;4.75;;
14516;SDS011;7344;50.864;4.362;2022-07-23T15:18:29;4.72;;;4.32;;
14516;SDS011;7344;50.864;4.362;2022-07-23T15:20:56;6.55;;;4.95;;
14516;SDS011;7344;50.864;4.362;2022-07-23T15:23:22;5.28;;;4.97;;
14516;SDS011;7344;50.864;4.362;2022-07-23T15:25:48;5.07;;;4.68;;
14516;SDS011;7344;50.864;4.362;2022-07-23T15:28:13;5.28;;;4.80;;
14516;SDS011;7344;50.864;4.362;2022-07-23T15:30:39;6.15;;;5.15;;
14516;SDS011;7344;50.864;4.362;2022-07-23T15:33:05;4.43;;;4.22;;
14516;SDS011;7344;50.864;4.362;2022-07-23T15:35:31;5.10;;;4.60;;
14516;SDS011;7344;50.864;4.362;2022-07-23T15:37:57;5.57;;;5.13;;
14516;SDS011;7344;50.864;4.362;2022-07-23T15:40:23;6.93;;;4.63;;
14516;SDS011;7344;50.864;4.362;2022-07-23T15:42:49;6.43;;;5.10;;
14516;SDS011;7344;50.864;4.362;2022-07-23T15:45:14;4.90;;;4.60;;
14516;SDS011;7344;50.864;4.362;2022-07-23T15:47:40;6.40;;;5.00;;
14516;SDS011;7344;50.864;4.362;2022-07-23T15:50:07;5.03;;;4.50;;
14516;SDS011;7344;50.864;4.362;2022-07-23T15:52:34;4.57;;;4.20;;